Aviation Digital Data Service (ADDS)

Output produced by METARs form (1342 UTC 21 August 2019)
found at http://www.aviationweather.gov/metar/data/
 
Forecast for: EKCH (COPENHAGEN/KASTR, DK)
Text: TAF EKCH 211115Z 2112/2212 29012KT 9999 SCT030
Forecast period: 1200 to 2000 UTC 21 August 2019
Forecast type: FROM: standard forecast or significant change
Winds: from the WNW (290 degrees) at 14 MPH (12 knots; 6.2 m/s)
Visibility: 6 or more miles 10+ km)
Ceiling: at least 12,000 feet AGL
Clouds: scattered clouds at 3000 feet AGL
Weather: no significant weather forecast for this period
Text: BECMG 2120/2122 23005KT
Forecast period: 2000 UTC 21 August 2019 to 0800 UTC 22 August 2019
Forecast type: BECOMING: Conditions expected to become as follows by 2200 UTC 21 August 2019
Winds: from the SW (230 degrees) at 6 MPH (5 knots; 2.6 m/s)
Visibility: 6 or more miles 10+ km)
Ceiling: at least 12,000 feet AGL
Clouds: scattered clouds at 3000 feet AGL
Weather: no significant weather forecast for this period
Text: BECMG 2208/2210 19015KT
Forecast period: 0800 to 1200 UTC 22 August 2019
Forecast type: BECOMING: Conditions expected to become as follows by 1000 UTC 22 August 2019
Winds: from the S (190 degrees) at 17 MPH (15 knots; 7.7 m/s)
Visibility: 6 or more miles 10+ km)
Ceiling: at least 12,000 feet AGL
Clouds: scattered clouds at 3000 feet AGL
Weather: no significant weather forecast for this period